Amagon, Arkansas
Current Conditions -  °F | °C
As of 10:56 AM on Friday 24 Oct 2014 (Local Time) from KM19 Reporting Station
Scattered Clouds Scattered Clouds  
Wind Chill: 63°   Ceiling: Unl
Heat Index: 63°   Visibility: 10mi
Dew Point: 51°   Wind: 0mph
Humidity: 65%   Direction: NA
Pressure: 30.18"   Gusts: NA
Location:  35.56°N, 91.11°W
Report Text: KM19 241556Z AUTO 00000KT 10SM SCT043 17/11 A3018 RMK AO2 T01720105 SLP217
Loading
Personal Weather Stations






























Interactive Weather Map
Tropical Storm Tracking
New forecast layout! Learn more

10-Day Weather Forecast

Advertisements
Track Severe Weather on mobile